sensor_id;sensor_type;location;lat;lon;timestamp;P1;durP1;ratioP1;P2;durP2;ratioP2
4630;SDS011;2328;48.170;11.602;2024-01-30T00:04:10;7.90;;;4.30;;
4630;SDS011;2328;48.170;11.602;2024-01-30T00:06:47;11.43;;;4.63;;
4630;SDS011;2328;48.170;11.602;2024-01-30T00:09:28;7.43;;;3.70;;
4630;SDS011;2328;48.170;11.602;2024-01-30T00:12:06;17.03;;;4.57;;
4630;SDS011;2328;48.170;11.602;2024-01-30T00:14:49;8.73;;;4.60;;
4630;SDS011;2328;48.170;11.602;2024-01-30T00:20:21;10.70;;;4.60;;
4630;SDS011;2328;48.170;11.602;2024-01-30T00:23:06;9.37;;;4.23;;
4630;SDS011;2328;48.170;11.602;2024-01-30T00:25:59;6.27;;;4.13;;
4630;SDS011;2328;48.170;11.602;2024-01-30T00:28:35;8.13;;;3.20;;
4630;SDS011;2328;48.170;11.602;2024-01-30T00:31:20;7.73;;;3.90;;
4630;SDS011;2328;48.170;11.602;2024-01-30T00:37:37;11.10;;;3.80;;
4630;SDS011;2328;48.170;11.602;2024-01-30T00:40:35;6.87;;;3.87;;
4630;SDS011;2328;48.170;11.602;2024-01-30T00:43:32;9.13;;;4.30;;
4630;SDS011;2328;48.170;11.602;2024-01-30T00:46:22;6.10;;;3.70;;
4630;SDS011;2328;48.170;11.602;2024-01-30T00:49:08;7.30;;;3.70;;
4630;SDS011;2328;48.170;11.602;2024-01-30T00:51:48;9.00;;;3.67;;
4630;SDS011;2328;48.170;11.602;2024-01-30T00:54:20;12.63;;;3.90;;
4630;SDS011;2328;48.170;11.602;2024-01-30T00:56:53;6.77;;;3.47;;
4630;SDS011;2328;48.170;11.602;2024-01-30T00:59:30;6.63;;;3.53;;
4630;SDS011;2328;48.170;11.602;2024-01-30T01:02:11;6.63;;;3.50;;
4630;SDS011;2328;48.170;11.602;2024-01-30T01:04:46;12.00;;;3.40;;
4630;SDS011;2328;48.170;11.602;2024-01-30T01:07:19;6.90;;;3.40;;
4630;SDS011;2328;48.170;11.602;2024-01-30T01:09:58;5.20;;;3.03;;
4630;SDS011;2328;48.170;11.602;2024-01-30T01:12:44;8.37;;;2.77;;
4630;SDS011;2328;48.170;11.602;2024-01-30T01:15:17;6.90;;;4.03;;
4630;SDS011;2328;48.170;11.602;2024-01-30T01:17:50;8.07;;;3.17;;
4630;SDS011;2328;48.170;11.602;2024-01-30T01:21:01;6.13;;;3.40;;
4630;SDS011;2328;48.170;11.602;2024-01-30T01:23:47;9.13;;;3.60;;
4630;SDS011;2328;48.170;11.602;2024-01-30T01:26:33;6.13;;;2.97;;
4630;SDS011;2328;48.170;11.602;2024-01-30T01:29:17;6.90;;;3.07;;
4630;SDS011;2328;48.170;11.602;2024-01-30T01:31:56;3.27;;;2.30;;
4630;SDS011;2328;48.170;11.602;2024-01-30T01:34:45;12.63;;;3.27;;
4630;SDS011;2328;48.170;11.602;2024-01-30T01:40:48;3.17;;;2.60;;
4630;SDS011;2328;48.170;11.602;2024-01-30T01:43:34;5.27;;;2.87;;
4630;SDS011;2328;48.170;11.602;2024-01-30T01:46:05;3.80;;;2.30;;
4630;SDS011;2328;48.170;11.602;2024-01-30T01:48:36;5.47;;;2.60;;
4630;SDS011;2328;48.170;11.602;2024-01-30T01:51:21;5.77;;;2.97;;
4630;SDS011;2328;48.170;11.602;2024-01-30T01:53:55;7.10;;;3.67;;
4630;SDS011;2328;48.170;11.602;2024-01-30T02:02:56;6.87;;;2.80;;
4630;SDS011;2328;48.170;11.602;2024-01-30T02:05:44;13.37;;;3.30;;
4630;SDS011;2328;48.170;11.602;2024-01-30T02:08:26;8.77;;;3.50;;
4630;SDS011;2328;48.170;11.602;2024-01-30T02:11:10;4.90;;;3.43;;
4630;SDS011;2328;48.170;11.602;2024-01-30T02:13:51;6.43;;;3.10;;
4630;SDS011;2328;48.170;11.602;2024-01-30T02:16:25;6.30;;;3.77;;
4630;SDS011;2328;48.170;11.602;2024-01-30T02:18:54;5.23;;;2.20;;
4630;SDS011;2328;48.170;11.602;2024-01-30T02:21:41;11.27;;;3.70;;
4630;SDS011;2328;48.170;11.602;2024-01-30T02:24:13;5.40;;;2.80;;
4630;SDS011;2328;48.170;11.602;2024-01-30T02:26:48;5.77;;;2.80;;
4630;SDS011;2328;48.170;11.602;2024-01-30T02:29:22;6.23;;;3.17;;
4630;SDS011;2328;48.170;11.602;2024-01-30T02:31:54;4.57;;;3.07;;
4630;SDS011;2328;48.170;11.602;2024-01-30T02:34:33;3.17;;;2.53;;
4630;SDS011;2328;48.170;11.602;2024-01-30T02:37:18;12.90;;;2.80;;
4630;SDS011;2328;48.170;11.602;2024-01-30T02:40:01;3.50;;;3.07;;
4630;SDS011;2328;48.170;11.602;2024-01-30T02:42:31;9.03;;;2.97;;
4630;SDS011;2328;48.170;11.602;2024-01-30T02:45:01;4.33;;;2.80;;
4630;SDS011;2328;48.170;11.602;2024-01-30T02:47:30;6.97;;;2.97;;
4630;SDS011;2328;48.170;11.602;2024-01-30T02:50:12;4.80;;;3.00;;
4630;SDS011;2328;48.170;11.602;2024-01-30T02:53:00;4.80;;;2.60;;
4630;SDS011;2328;48.170;11.602;2024-01-30T02:55:34;5.40;;;3.23;;
4630;SDS011;2328;48.170;11.602;2024-01-30T02:58:05;4.47;;;2.60;;
4630;SDS011;2328;48.170;11.602;2024-01-30T03:00:36;9.20;;;3.90;;
4630;SDS011;2328;48.170;11.602;2024-01-30T03:03:07;5.97;;;2.87;;
4630;SDS011;2328;48.170;11.602;2024-01-30T03:05:39;6.40;;;2.90;;
4630;SDS011;2328;48.170;11.602;2024-01-30T03:08:10;2.70;;;2.43;;
4630;SDS011;2328;48.170;11.602;2024-01-30T03:10:49;5.77;;;3.00;;
4630;SDS011;2328;48.170;11.602;2024-01-30T03:13:19;4.93;;;3.20;;
4630;SDS011;2328;48.170;11.602;2024-01-30T03:15:51;6.80;;;2.57;;
4630;SDS011;2328;48.170;11.602;2024-01-30T03:18:25;9.33;;;3.37;;
4630;SDS011;2328;48.170;11.602;2024-01-30T03:20:55;5.60;;;2.50;;
4630;SDS011;2328;48.170;11.602;2024-01-30T03:23:26;3.27;;;2.40;;
4630;SDS011;2328;48.170;11.602;2024-01-30T03:26:08;4.80;;;2.23;;
4630;SDS011;2328;48.170;11.602;2024-01-30T03:28:52;5.40;;;2.57;;
4630;SDS011;2328;48.170;11.602;2024-01-30T03:31:29;4.53;;;2.30;;
4630;SDS011;2328;48.170;11.602;2024-01-30T03:34:16;5.27;;;2.33;;
4630;SDS011;2328;48.170;11.602;2024-01-30T03:36:45;4.33;;;2.63;;
4630;SDS011;2328;48.170;11.602;2024-01-30T03:39:16;12.80;;;2.30;;
4630;SDS011;2328;48.170;11.602;2024-01-30T03:41:48;4.73;;;2.73;;
4630;SDS011;2328;48.170;11.602;2024-01-30T03:44:19;3.33;;;2.20;;
4630;SDS011;2328;48.170;11.602;2024-01-30T03:46:49;4.10;;;2.67;;
4630;SDS011;2328;48.170;11.602;2024-01-30T03:49:20;3.87;;;2.53;;
4630;SDS011;2328;48.170;11.602;2024-01-30T03:51:50;4.30;;;1.90;;
4630;SDS011;2328;48.170;11.602;2024-01-30T03:54:29;4.30;;;1.90;;
4630;SDS011;2328;48.170;11.602;2024-01-30T03:57:00;2.97;;;1.97;;
4630;SDS011;2328;48.170;11.602;2024-01-30T03:59:29;6.77;;;2.50;;
4630;SDS011;2328;48.170;11.602;2024-01-30T04:02:00;5.37;;;2.53;;
4630;SDS011;2328;48.170;11.602;2024-01-30T04:04:30;4.70;;;2.83;;
4630;SDS011;2328;48.170;11.602;2024-01-30T04:07:03;2.70;;;2.43;;
4630;SDS011;2328;48.170;11.602;2024-01-30T04:12:24;2.43;;;2.20;;
4630;SDS011;2328;48.170;11.602;2024-01-30T04:15:04;2.80;;;1.80;;
4630;SDS011;2328;48.170;11.602;2024-01-30T04:17:35;4.13;;;2.73;;
4630;SDS011;2328;48.170;11.602;2024-01-30T04:20:05;4.50;;;1.90;;
4630;SDS011;2328;48.170;11.602;2024-01-30T04:22:36;6.13;;;2.50;;
4630;SDS011;2328;48.170;11.602;2024-01-30T04:25:08;4.70;;;2.93;;
4630;SDS011;2328;48.170;11.602;2024-01-30T04:27:38;3.30;;;2.33;;
4630;SDS011;2328;48.170;11.602;2024-01-30T04:30:21;2.67;;;1.90;;
4630;SDS011;2328;48.170;11.602;2024-01-30T04:32:54;4.43;;;2.40;;
4630;SDS011;2328;48.170;11.602;2024-01-30T04:35:24;3.10;;;2.70;;
4630;SDS011;2328;48.170;11.602;2024-01-30T04:38:08;3.37;;;2.37;;
4630;SDS011;2328;48.170;11.602;2024-01-30T04:43:48;3.23;;;2.23;;
4630;SDS011;2328;48.170;11.602;2024-01-30T04:46:19;4.70;;;2.47;;
4630;SDS011;2328;48.170;11.602;2024-01-30T04:48:48;5.10;;;2.20;;
4630;SDS011;2328;48.170;11.602;2024-01-30T04:51:21;3.27;;;2.33;;
4630;SDS011;2328;48.170;11.602;2024-01-30T04:53:50;2.33;;;2.13;;
4630;SDS011;2328;48.170;11.602;2024-01-30T04:56:24;3.27;;;2.33;;
4630;SDS011;2328;48.170;11.602;2024-01-30T04:58:53;4.20;;;2.20;;
4630;SDS011;2328;48.170;11.602;2024-01-30T05:01:24;8.00;;;2.10;;
4630;SDS011;2328;48.170;11.602;2024-01-30T05:03:57;3.27;;;2.10;;
4630;SDS011;2328;48.170;11.602;2024-01-30T05:06:30;3.80;;;2.53;;
4630;SDS011;2328;48.170;11.602;2024-01-30T05:09:01;2.20;;;2.00;;
4630;SDS011;2328;48.170;11.602;2024-01-30T05:11:52;2.37;;;1.93;;
4630;SDS011;2328;48.170;11.602;2024-01-30T05:14:21;4.63;;;2.67;;
4630;SDS011;2328;48.170;11.602;2024-01-30T05:16:50;10.57;;;2.70;;
4630;SDS011;2328;48.170;11.602;2024-01-30T05:19:19;4.90;;;2.80;;
4630;SDS011;2328;48.170;11.602;2024-01-30T05:21:50;3.73;;;2.20;;
4630;SDS011;2328;48.170;11.602;2024-01-30T05:24:22;9.10;;;2.60;;
4630;SDS011;2328;48.170;11.602;2024-01-30T05:26:57;3.03;;;2.40;;
4630;SDS011;2328;48.170;11.602;2024-01-30T05:29:30;6.37;;;2.60;;
4630;SDS011;2328;48.170;11.602;2024-01-30T05:32:03;8.13;;;2.57;;
4630;SDS011;2328;48.170;11.602;2024-01-30T05:34:46;3.43;;;2.40;;
4630;SDS011;2328;48.170;11.602;2024-01-30T05:37:19;2.60;;;2.00;;
4630;SDS011;2328;48.170;11.602;2024-01-30T05:39:49;5.00;;;2.60;;
4630;SDS011;2328;48.170;11.602;2024-01-30T05:42:20;3.10;;;1.80;;
4630;SDS011;2328;48.170;11.602;2024-01-30T05:44:59;2.80;;;1.83;;
4630;SDS011;2328;48.170;11.602;2024-01-30T05:47:29;3.77;;;1.70;;
4630;SDS011;2328;48.170;11.602;2024-01-30T05:49:59;3.93;;;1.70;;
4630;SDS011;2328;48.170;11.602;2024-01-30T05:52:29;2.20;;;1.57;;
4630;SDS011;2328;48.170;11.602;2024-01-30T05:54:59;2.00;;;1.70;;
4630;SDS011;2328;48.170;11.602;2024-01-30T05:57:30;6.00;;;2.77;;
4630;SDS011;2328;48.170;11.602;2024-01-30T05:59:59;2.23;;;1.90;;
4630;SDS011;2328;48.170;11.602;2024-01-30T06:02:29;4.83;;;2.30;;
4630;SDS011;2328;48.170;11.602;2024-01-30T06:04:59;10.23;;;2.73;;
4630;SDS011;2328;48.170;11.602;2024-01-30T06:07:35;3.50;;;1.93;;
4630;SDS011;2328;48.170;11.602;2024-01-30T06:10:12;6.33;;;2.70;;
4630;SDS011;2328;48.170;11.602;2024-01-30T06:12:43;2.20;;;1.80;;
4630;SDS011;2328;48.170;11.602;2024-01-30T06:15:11;3.00;;;2.30;;
4630;SDS011;2328;48.170;11.602;2024-01-30T06:17:41;2.37;;;1.60;;
4630;SDS011;2328;48.170;11.602;2024-01-30T06:20:09;2.90;;;1.60;;
4630;SDS011;2328;48.170;11.602;2024-01-30T06:22:39;4.73;;;2.37;;
4630;SDS011;2328;48.170;11.602;2024-01-30T06:25:13;7.70;;;1.90;;
4630;SDS011;2328;48.170;11.602;2024-01-30T06:27:45;3.63;;;2.03;;
4630;SDS011;2328;48.170;11.602;2024-01-30T06:30:14;10.30;;;2.40;;
4630;SDS011;2328;48.170;11.602;2024-01-30T06:32:46;3.87;;;2.33;;
4630;SDS011;2328;48.170;11.602;2024-01-30T06:35:24;5.73;;;2.50;;
4630;SDS011;2328;48.170;11.602;2024-01-30T06:37:55;2.13;;;1.80;;
4630;SDS011;2328;48.170;11.602;2024-01-30T06:40:25;3.07;;;2.17;;
4630;SDS011;2328;48.170;11.602;2024-01-30T06:43:07;5.20;;;2.70;;
4630;SDS011;2328;48.170;11.602;2024-01-30T06:45:36;5.80;;;3.10;;
4630;SDS011;2328;48.170;11.602;2024-01-30T06:48:07;6.63;;;2.70;;
4630;SDS011;2328;48.170;11.602;2024-01-30T06:53:21;4.00;;;2.43;;
4630;SDS011;2328;48.170;11.602;2024-01-30T06:55:54;2.60;;;1.97;;
4630;SDS011;2328;48.170;11.602;2024-01-30T06:58:26;2.40;;;1.67;;
4630;SDS011;2328;48.170;11.602;2024-01-30T07:00:56;4.70;;;2.07;;
4630;SDS011;2328;48.170;11.602;2024-01-30T07:03:39;6.63;;;3.50;;
4630;SDS011;2328;48.170;11.602;2024-01-30T07:06:16;5.07;;;3.53;;
4630;SDS011;2328;48.170;11.602;2024-01-30T07:12:05;9.67;;;3.40;;
4630;SDS011;2328;48.170;11.602;2024-01-30T07:14:51;5.17;;;3.27;;
4630;SDS011;2328;48.170;11.602;2024-01-30T07:20:54;6.87;;;3.33;;
4630;SDS011;2328;48.170;11.602;2024-01-30T07:23:25;4.83;;;2.47;;
4630;SDS011;2328;48.170;11.602;2024-01-30T07:25:56;9.30;;;2.70;;
4630;SDS011;2328;48.170;11.602;2024-01-30T07:28:26;3.90;;;2.60;;
4630;SDS011;2328;48.170;11.602;2024-01-30T07:31:11;7.43;;;3.13;;
4630;SDS011;2328;48.170;11.602;2024-01-30T07:34:05;4.37;;;2.60;;
4630;SDS011;2328;48.170;11.602;2024-01-30T07:36:35;2.33;;;1.90;;
4630;SDS011;2328;48.170;11.602;2024-01-30T07:39:05;3.37;;;2.30;;
4630;SDS011;2328;48.170;11.602;2024-01-30T07:41:34;3.27;;;2.60;;
4630;SDS011;2328;48.170;11.602;2024-01-30T07:44:04;3.23;;;1.90;;
4630;SDS011;2328;48.170;11.602;2024-01-30T07:46:37;4.10;;;3.00;;
4630;SDS011;2328;48.170;11.602;2024-01-30T07:49:05;5.67;;;2.67;;
4630;SDS011;2328;48.170;11.602;2024-01-30T07:51:34;2.80;;;2.47;;
4630;SDS011;2328;48.170;11.602;2024-01-30T07:54:05;4.20;;;2.30;;
4630;SDS011;2328;48.170;11.602;2024-01-30T07:56:39;4.47;;;2.87;;
4630;SDS011;2328;48.170;11.602;2024-01-30T07:59:09;4.73;;;2.83;;
4630;SDS011;2328;48.170;11.602;2024-01-30T08:01:43;3.60;;;2.87;;
4630;SDS011;2328;48.170;11.602;2024-01-30T08:04:12;6.77;;;3.27;;
4630;SDS011;2328;48.170;11.602;2024-01-30T08:06:43;3.33;;;2.97;;
4630;SDS011;2328;48.170;11.602;2024-01-30T08:09:12;4.00;;;3.03;;
4630;SDS011;2328;48.170;11.602;2024-01-30T08:11:41;4.63;;;2.90;;
4630;SDS011;2328;48.170;11.602;2024-01-30T08:14:10;7.37;;;2.80;;
4630;SDS011;2328;48.170;11.602;2024-01-30T08:16:40;5.53;;;3.27;;
4630;SDS011;2328;48.170;11.602;2024-01-30T08:19:14;6.83;;;3.63;;
4630;SDS011;2328;48.170;11.602;2024-01-30T08:21:43;3.77;;;3.23;;
4630;SDS011;2328;48.170;11.602;2024-01-30T08:24:14;11.63;;;3.43;;
4630;SDS011;2328;48.170;11.602;2024-01-30T08:26:45;4.93;;;3.40;;
4630;SDS011;2328;48.170;11.602;2024-01-30T08:29:13;4.80;;;2.90;;
4630;SDS011;2328;48.170;11.602;2024-01-30T08:31:43;4.43;;;3.00;;
4630;SDS011;2328;48.170;11.602;2024-01-30T08:34:14;3.90;;;2.57;;
4630;SDS011;2328;48.170;11.602;2024-01-30T08:36:51;5.13;;;2.47;;
4630;SDS011;2328;48.170;11.602;2024-01-30T08:39:30;7.60;;;3.07;;
4630;SDS011;2328;48.170;11.602;2024-01-30T08:42:00;3.07;;;2.40;;
4630;SDS011;2328;48.170;11.602;2024-01-30T08:44:31;6.20;;;3.50;;
4630;SDS011;2328;48.170;11.602;2024-01-30T08:47:01;3.20;;;2.63;;
4630;SDS011;2328;48.170;11.602;2024-01-30T08:49:31;6.70;;;2.80;;
4630;SDS011;2328;48.170;11.602;2024-01-30T08:52:04;13.73;;;3.23;;
4630;SDS011;2328;48.170;11.602;2024-01-30T08:54:35;4.77;;;3.60;;
4630;SDS011;2328;48.170;11.602;2024-01-30T08:57:05;5.13;;;3.23;;
4630;SDS011;2328;48.170;11.602;2024-01-30T08:59:33;3.47;;;2.30;;
4630;SDS011;2328;48.170;11.602;2024-01-30T09:02:06;5.73;;;2.93;;
4630;SDS011;2328;48.170;11.602;2024-01-30T09:04:41;2.97;;;2.20;;
4630;SDS011;2328;48.170;11.602;2024-01-30T09:07:11;4.00;;;2.60;;
4630;SDS011;2328;48.170;11.602;2024-01-30T09:09:47;2.67;;;2.40;;
4630;SDS011;2328;48.170;11.602;2024-01-30T09:12:22;8.07;;;1.90;;
4630;SDS011;2328;48.170;11.602;2024-01-30T09:14:57;3.67;;;2.73;;
4630;SDS011;2328;48.170;11.602;2024-01-30T09:17:26;3.60;;;2.90;;
4630;SDS011;2328;48.170;11.602;2024-01-30T09:20:26;6.93;;;3.50;;
4630;SDS011;2328;48.170;11.602;2024-01-30T09:23:00;4.70;;;3.70;;
4630;SDS011;2328;48.170;11.602;2024-01-30T09:25:29;5.63;;;3.10;;
4630;SDS011;2328;48.170;11.602;2024-01-30T09:27:59;5.80;;;2.97;;
4630;SDS011;2328;48.170;11.602;2024-01-30T09:30:28;3.50;;;2.63;;
4630;SDS011;2328;48.170;11.602;2024-01-30T09:32:59;3.07;;;2.43;;
4630;SDS011;2328;48.170;11.602;2024-01-30T09:35:40;4.03;;;2.13;;
4630;SDS011;2328;48.170;11.602;2024-01-30T09:38:11;5.50;;;3.00;;
4630;SDS011;2328;48.170;11.602;2024-01-30T09:40:45;4.60;;;2.03;;
4630;SDS011;2328;48.170;11.602;2024-01-30T09:43:24;3.43;;;2.37;;
4630;SDS011;2328;48.170;11.602;2024-01-30T09:45:58;3.03;;;2.50;;
4630;SDS011;2328;48.170;11.602;2024-01-30T09:48:30;2.63;;;1.93;;
4630;SDS011;2328;48.170;11.602;2024-01-30T09:51:03;4.13;;;2.40;;
4630;SDS011;2328;48.170;11.602;2024-01-30T09:53:38;5.47;;;2.17;;
4630;SDS011;2328;48.170;11.602;2024-01-30T09:56:12;3.03;;;1.70;;
4630;SDS011;2328;48.170;11.602;2024-01-30T09:58:41;6.90;;;1.93;;
4630;SDS011;2328;48.170;11.602;2024-01-30T10:01:10;2.80;;;2.00;;
4630;SDS011;2328;48.170;11.602;2024-01-30T10:03:45;1.97;;;1.50;;
4630;SDS011;2328;48.170;11.602;2024-01-30T10:06:23;2.93;;;1.70;;
4630;SDS011;2328;48.170;11.602;2024-01-30T10:08:53;2.97;;;2.00;;
4630;SDS011;2328;48.170;11.602;2024-01-30T10:11:33;2.50;;;1.90;;
4630;SDS011;2328;48.170;11.602;2024-01-30T10:14:04;1.93;;;1.83;;
4630;SDS011;2328;48.170;11.602;2024-01-30T10:16:34;4.60;;;2.10;;
4630;SDS011;2328;48.170;11.602;2024-01-30T10:19:04;2.47;;;1.77;;
4630;SDS011;2328;48.170;11.602;2024-01-30T10:21:35;2.70;;;1.60;;
4630;SDS011;2328;48.170;11.602;2024-01-30T10:26:37;2.13;;;1.77;;
4630;SDS011;2328;48.170;11.602;2024-01-30T10:29:06;7.03;;;2.30;;
4630;SDS011;2328;48.170;11.602;2024-01-30T10:31:35;1.97;;;1.70;;
4630;SDS011;2328;48.170;11.602;2024-01-30T10:34:04;2.40;;;2.17;;
4630;SDS011;2328;48.170;11.602;2024-01-30T10:36:46;4.83;;;1.33;;
4630;SDS011;2328;48.170;11.602;2024-01-30T10:39:19;1.90;;;1.80;;
4630;SDS011;2328;48.170;11.602;2024-01-30T10:41:50;6.83;;;2.37;;
4630;SDS011;2328;48.170;11.602;2024-01-30T10:44:26;2.97;;;1.60;;
4630;SDS011;2328;48.170;11.602;2024-01-30T10:47:00;2.83;;;1.70;;
4630;SDS011;2328;48.170;11.602;2024-01-30T10:49:34;5.13;;;2.23;;
4630;SDS011;2328;48.170;11.602;2024-01-30T10:55:09;3.83;;;1.73;;
4630;SDS011;2328;48.170;11.602;2024-01-30T10:57:38;3.67;;;1.57;;
4630;SDS011;2328;48.170;11.602;2024-01-30T11:00:07;3.53;;;1.70;;
4630;SDS011;2328;48.170;11.602;2024-01-30T11:02:39;2.13;;;1.83;;
4630;SDS011;2328;48.170;11.602;2024-01-30T11:05:10;3.50;;;1.90;;
4630;SDS011;2328;48.170;11.602;2024-01-30T11:07:41;5.27;;;1.60;;
4630;SDS011;2328;48.170;11.602;2024-01-30T11:10:11;2.63;;;1.60;;
4630;SDS011;2328;48.170;11.602;2024-01-30T11:12:42;4.47;;;1.50;;
4630;SDS011;2328;48.170;11.602;2024-01-30T11:15:13;5.10;;;1.90;;
4630;SDS011;2328;48.170;11.602;2024-01-30T11:17:43;6.00;;;1.70;;
4630;SDS011;2328;48.170;11.602;2024-01-30T11:20:14;6.43;;;1.50;;
4630;SDS011;2328;48.170;11.602;2024-01-30T11:22:48;10.27;;;1.57;;
4630;SDS011;2328;48.170;11.602;2024-01-30T11:25:19;2.00;;;1.73;;
4630;SDS011;2328;48.170;11.602;2024-01-30T11:27:50;1.60;;;1.23;;
4630;SDS011;2328;48.170;11.602;2024-01-30T11:30:23;1.33;;;1.10;;
4630;SDS011;2328;48.170;11.602;2024-01-30T11:33:01;6.97;;;1.30;;
4630;SDS011;2328;48.170;11.602;2024-01-30T11:35:34;2.73;;;1.40;;
4630;SDS011;2328;48.170;11.602;2024-01-30T11:38:05;1.93;;;1.50;;
4630;SDS011;2328;48.170;11.602;2024-01-30T11:40:35;4.73;;;0.93;;
4630;SDS011;2328;48.170;11.602;2024-01-30T11:43:05;1.67;;;1.07;;
4630;SDS011;2328;48.170;11.602;2024-01-30T11:45:36;4.10;;;1.30;;
4630;SDS011;2328;48.170;11.602;2024-01-30T11:48:07;2.23;;;1.10;;
4630;SDS011;2328;48.170;11.602;2024-01-30T11:50:37;3.33;;;1.10;;
4630;SDS011;2328;48.170;11.602;2024-01-30T11:53:09;1.73;;;1.17;;
4630;SDS011;2328;48.170;11.602;2024-01-30T11:55:37;1.43;;;1.17;;
4630;SDS011;2328;48.170;11.602;2024-01-30T11:58:06;1.60;;;1.20;;
4630;SDS011;2328;48.170;11.602;2024-01-30T12:00:35;0.90;;;0.90;;
4630;SDS011;2328;48.170;11.602;2024-01-30T12:03:07;1.43;;;1.07;;
4630;SDS011;2328;48.170;11.602;2024-01-30T12:05:35;1.80;;;1.23;;
4630;SDS011;2328;48.170;11.602;2024-01-30T12:08:15;2.03;;;0.60;;
4630;SDS011;2328;48.170;11.602;2024-01-30T12:10:45;2.50;;;1.10;;
4630;SDS011;2328;48.170;11.602;2024-01-30T12:13:14;1.50;;;0.80;;
4630;SDS011;2328;48.170;11.602;2024-01-30T12:15:43;1.97;;;1.30;;
4630;SDS011;2328;48.170;11.602;2024-01-30T12:18:12;1.73;;;0.90;;
4630;SDS011;2328;48.170;11.602;2024-01-30T12:20:41;1.57;;;1.03;;
4630;SDS011;2328;48.170;11.602;2024-01-30T12:23:11;1.53;;;1.13;;
4630;SDS011;2328;48.170;11.602;2024-01-30T12:25:42;1.00;;;0.90;;
4630;SDS011;2328;48.170;11.602;2024-01-30T12:28:11;3.50;;;1.00;;
4630;SDS011;2328;48.170;11.602;2024-01-30T12:30:41;1.53;;;0.90;;
4630;SDS011;2328;48.170;11.602;2024-01-30T12:33:10;1.30;;;1.20;;
4630;SDS011;2328;48.170;11.602;2024-01-30T12:35:48;0.80;;;0.80;;
4630;SDS011;2328;48.170;11.602;2024-01-30T12:38:28;1.10;;;1.00;;
4630;SDS011;2328;48.170;11.602;2024-01-30T12:41:00;0.90;;;0.80;;
4630;SDS011;2328;48.170;11.602;2024-01-30T12:43:29;1.20;;;0.93;;
4630;SDS011;2328;48.170;11.602;2024-01-30T12:46:04;0.87;;;0.80;;
4630;SDS011;2328;48.170;11.602;2024-01-30T12:48:34;1.23;;;1.00;;
4630;SDS011;2328;48.170;11.602;2024-01-30T12:51:02;1.93;;;0.90;;
4630;SDS011;2328;48.170;11.602;2024-01-30T12:53:31;1.20;;;0.93;;
4630;SDS011;2328;48.170;11.602;2024-01-30T12:56:03;1.13;;;1.00;;
4630;SDS011;2328;48.170;11.602;2024-01-30T12:58:32;4.43;;;0.90;;
4630;SDS011;2328;48.170;11.602;2024-01-30T13:01:00;1.30;;;0.90;;
4630;SDS011;2328;48.170;11.602;2024-01-30T13:03:31;2.43;;;1.07;;
4630;SDS011;2328;48.170;11.602;2024-01-30T13:06:03;1.87;;;0.77;;
4630;SDS011;2328;48.170;11.602;2024-01-30T13:08:33;2.37;;;0.97;;
4630;SDS011;2328;48.170;11.602;2024-01-30T13:11:05;2.40;;;0.90;;
4630;SDS011;2328;48.170;11.602;2024-01-30T13:13:46;9.67;;;0.90;;
4630;SDS011;2328;48.170;11.602;2024-01-30T13:16:18;1.23;;;0.93;;
4630;SDS011;2328;48.170;11.602;2024-01-30T13:18:47;1.23;;;0.97;;
4630;SDS011;2328;48.170;11.602;2024-01-30T13:21:20;2.30;;;0.80;;
4630;SDS011;2328;48.170;11.602;2024-01-30T13:23:49;1.63;;;0.93;;
4630;SDS011;2328;48.170;11.602;2024-01-30T13:26:22;1.20;;;0.80;;
4630;SDS011;2328;48.170;11.602;2024-01-30T13:28:52;1.03;;;0.73;;
4630;SDS011;2328;48.170;11.602;2024-01-30T13:31:21;0.60;;;0.50;;
4630;SDS011;2328;48.170;11.602;2024-01-30T13:33:49;2.30;;;0.90;;
4630;SDS011;2328;48.170;11.602;2024-01-30T13:36:20;2.03;;;0.90;;
4630;SDS011;2328;48.170;11.602;2024-01-30T13:38:49;1.33;;;1.00;;
4630;SDS011;2328;48.170;11.602;2024-01-30T13:41:24;3.80;;;0.80;;
4630;SDS011;2328;48.170;11.602;2024-01-30T13:43:53;1.63;;;0.80;;
4630;SDS011;2328;48.170;11.602;2024-01-30T13:46:30;2.70;;;1.00;;
4630;SDS011;2328;48.170;11.602;2024-01-30T13:49:03;1.83;;;1.00;;
4630;SDS011;2328;48.170;11.602;2024-01-30T13:51:32;1.60;;;1.10;;
4630;SDS011;2328;48.170;11.602;2024-01-30T13:54:00;2.80;;;1.10;;
4630;SDS011;2328;48.170;11.602;2024-01-30T13:56:31;1.20;;;0.83;;
4630;SDS011;2328;48.170;11.602;2024-01-30T13:58:59;1.73;;;0.73;;
4630;SDS011;2328;48.170;11.602;2024-01-30T14:01:31;1.10;;;1.00;;
4630;SDS011;2328;48.170;11.602;2024-01-30T14:04:00;4.83;;;1.30;;
4630;SDS011;2328;48.170;11.602;2024-01-30T14:06:31;2.80;;;1.00;;
4630;SDS011;2328;48.170;11.602;2024-01-30T14:09:00;3.50;;;1.20;;
4630;SDS011;2328;48.170;11.602;2024-01-30T14:11:35;1.40;;;1.03;;
4630;SDS011;2328;48.170;11.602;2024-01-30T14:14:04;1.83;;;1.43;;
4630;SDS011;2328;48.170;11.602;2024-01-30T14:16:33;1.43;;;1.03;;
4630;SDS011;2328;48.170;11.602;2024-01-30T14:19:02;1.63;;;1.17;;
4630;SDS011;2328;48.170;11.602;2024-01-30T14:21:35;1.90;;;1.20;;
4630;SDS011;2328;48.170;11.602;2024-01-30T14:24:06;2.00;;;1.10;;
4630;SDS011;2328;48.170;11.602;2024-01-30T14:26:36;5.60;;;1.27;;
4630;SDS011;2328;48.170;11.602;2024-01-30T14:29:07;1.17;;;1.00;;
4630;SDS011;2328;48.170;11.602;2024-01-30T14:31:38;4.70;;;1.27;;
4630;SDS011;2328;48.170;11.602;2024-01-30T14:34:06;1.67;;;1.07;;
4630;SDS011;2328;48.170;11.602;2024-01-30T14:36:38;11.00;;;1.10;;
4630;SDS011;2328;48.170;11.602;2024-01-30T14:39:07;2.10;;;1.17;;
4630;SDS011;2328;48.170;11.602;2024-01-30T14:41:39;2.20;;;1.10;;
4630;SDS011;2328;48.170;11.602;2024-01-30T14:44:11;1.33;;;0.90;;
4630;SDS011;2328;48.170;11.602;2024-01-30T14:46:40;2.20;;;1.00;;
4630;SDS011;2328;48.170;11.602;2024-01-30T14:49:09;4.00;;;1.20;;
4630;SDS011;2328;48.170;11.602;2024-01-30T14:51:42;2.63;;;1.30;;
4630;SDS011;2328;48.170;11.602;2024-01-30T14:54:14;1.23;;;1.13;;
4630;SDS011;2328;48.170;11.602;2024-01-30T14:56:59;1.00;;;0.80;;
4630;SDS011;2328;48.170;11.602;2024-01-30T14:59:29;1.40;;;0.83;;
4630;SDS011;2328;48.170;11.602;2024-01-30T15:02:12;2.37;;;1.10;;
4630;SDS011;2328;48.170;11.602;2024-01-30T15:04:42;1.00;;;0.90;;
4630;SDS011;2328;48.170;11.602;2024-01-30T15:07:11;3.00;;;1.13;;
4630;SDS011;2328;48.170;11.602;2024-01-30T15:09:58;1.33;;;1.03;;
4630;SDS011;2328;48.170;11.602;2024-01-30T15:12:46;1.50;;;1.40;;
4630;SDS011;2328;48.170;11.602;2024-01-30T15:15:14;1.30;;;1.13;;
4630;SDS011;2328;48.170;11.602;2024-01-30T15:17:45;2.60;;;0.90;;
4630;SDS011;2328;48.170;11.602;2024-01-30T15:20:14;2.23;;;1.50;;
4630;SDS011;2328;48.170;11.602;2024-01-30T15:22:48;4.20;;;1.40;;
4630;SDS011;2328;48.170;11.602;2024-01-30T15:25:16;1.47;;;1.07;;
4630;SDS011;2328;48.170;11.602;2024-01-30T15:27:51;3.23;;;1.00;;
4630;SDS011;2328;48.170;11.602;2024-01-30T15:30:19;1.60;;;0.90;;
4630;SDS011;2328;48.170;11.602;2024-01-30T15:32:50;2.03;;;1.23;;
4630;SDS011;2328;48.170;11.602;2024-01-30T15:35:19;2.87;;;1.00;;
4630;SDS011;2328;48.170;11.602;2024-01-30T15:37:48;1.53;;;1.13;;
4630;SDS011;2328;48.170;11.602;2024-01-30T15:40:17;1.60;;;1.17;;
4630;SDS011;2328;48.170;11.602;2024-01-30T15:42:51;2.13;;;1.40;;
4630;SDS011;2328;48.170;11.602;2024-01-30T15:45:20;1.80;;;1.60;;
4630;SDS011;2328;48.170;11.602;2024-01-30T15:47:51;4.60;;;1.53;;
4630;SDS011;2328;48.170;11.602;2024-01-30T15:50:20;2.30;;;1.10;;
4630;SDS011;2328;48.170;11.602;2024-01-30T15:52:49;9.23;;;1.20;;
4630;SDS011;2328;48.170;11.602;2024-01-30T15:55:19;3.53;;;1.30;;
4630;SDS011;2328;48.170;11.602;2024-01-30T15:57:52;17.53;;;1.80;;
4630;SDS011;2328;48.170;11.602;2024-01-30T16:00:21;2.30;;;1.60;;
4630;SDS011;2328;48.170;11.602;2024-01-30T16:02:51;4.23;;;2.20;;
4630;SDS011;2328;48.170;11.602;2024-01-30T16:05:20;5.83;;;1.80;;
4630;SDS011;2328;48.170;11.602;2024-01-30T16:07:56;3.77;;;1.57;;
4630;SDS011;2328;48.170;11.602;2024-01-30T16:10:27;5.00;;;1.97;;
4630;SDS011;2328;48.170;11.602;2024-01-30T16:12:59;5.73;;;1.97;;
4630;SDS011;2328;48.170;11.602;2024-01-30T16:15:28;2.47;;;1.90;;
4630;SDS011;2328;48.170;11.602;2024-01-30T16:17:58;8.10;;;5.47;;